Time;durP1;ratioP1;P1;durP2;ratioP2;P2;SDS_P1;SDS_P2;PMS_P1;PMS_P2;Temp;Humidity;BMP_temperature;BMP_pressure;BME280_temperature;BME280_humidity;BME280_pressure;Samples;Min_cycle;Max_cycle;Signal;HPM_P1;HPM_P2
2023/08/30 00:00:31;;;;;;;5.38;4.88;;;16.60;99.90;;;;;;4966296;28;20491;-82
2023/08/30 00:02:57;;;;;;;5.57;5.18;;;16.60;99.90;;;;;;4962517;28;20030;-81
2023/08/30 00:05:22;;;;;;;6.00;5.50;;;16.60;99.90;;;;;;4973957;28;20455;-81
2023/08/30 00:07:48;;;;;;;5.43;4.82;;;16.60;99.90;;;;;;4974557;28;20467;-81
2023/08/30 00:10:14;;;;;;;6.03;5.43;;;16.60;99.90;;;;;;4962103;28;20035;-82
2023/08/30 00:12:40;;;;;;;5.55;5.05;;;16.50;99.90;;;;;;4954845;29;20454;-81
2023/08/30 00:15:06;;;;;;;6.93;5.97;;;16.60;99.90;;;;;;4965569;28;20038;-81
2023/08/30 00:17:31;;;;;;;6.68;6.07;;;16.50;99.90;;;;;;4967573;28;20249;-81
2023/08/30 00:19:59;;;;;;;6.18;5.55;;;16.50;99.90;;;;;;4962161;28;20042;-81
2023/08/30 00:22:27;;;;;;;6.72;5.93;;;16.50;99.90;;;;;;4961370;28;20043;-81
2023/08/30 00:24:53;;;;;;;6.75;6.15;;;16.50;99.90;;;;;;4970910;28;20043;-81
2023/08/30 00:27:20;;;;;;;8.55;7.03;;;16.50;99.90;;;;;;4972688;28;20118;-82
2023/08/30 00:29:46;;;;;;;7.72;6.57;;;16.50;99.90;;;;;;4969814;28;20391;-81
2023/08/30 00:32:11;;;;;;;7.40;5.88;;;16.50;99.90;;;;;;4955449;29;20431;-82
2023/08/30 00:34:37;;;;;;;7.30;6.55;;;16.50;99.90;;;;;;4965824;28;20035;-81
2023/08/30 00:37:03;;;;;;;7.07;6.47;;;16.50;99.90;;;;;;4971464;28;20077;-81
2023/08/30 00:39:28;;;;;;;6.28;5.72;;;16.50;99.90;;;;;;4973648;28;20039;-82
2023/08/30 00:41:54;;;;;;;6.50;5.80;;;16.50;99.90;;;;;;4954988;28;20031;-82
2023/08/30 00:44:19;;;;;;;7.13;6.53;;;16.50;99.90;;;;;;4958690;28;20480;-82
2023/08/30 00:46:45;;;;;;;8.35;6.50;;;16.50;99.90;;;;;;4955032;29;20110;-82
2023/08/30 00:49:11;;;;;;;8.05;6.78;;;17.20;99.90;;;;;;4962806;28;20057;-82
2023/08/30 00:51:37;;;;;;;9.95;7.32;;;16.50;99.90;;;;;;4973760;28;20066;-82
2023/08/30 00:54:03;;;;;;;9.63;7.20;;;16.50;99.90;;;;;;4972230;28;20150;-82
2023/08/30 00:56:29;;;;;;;10.60;7.47;;;16.80;99.90;;;;;;4968529;28;20031;-81
2023/08/30 00:58:55;;;;;;;7.40;6.70;;;16.50;99.90;;;;;;4958188;28;20047;-81
2023/08/30 01:01:22;;;;;;;9.95;6.90;;;16.60;99.90;;;;;;4965191;28;20047;-82
2023/08/30 01:03:48;;;;;;;7.53;6.82;;;16.40;99.90;;;;;;4961988;28;20112;-82
2023/08/30 01:06:13;;;;;;;8.10;7.30;;;16.40;99.90;;;;;;4960623;28;20031;-82
2023/08/30 01:08:41;;;;;;;8.32;7.50;;;16.40;99.90;;;;;;4956664;28;20494;-82
2023/08/30 01:11:29;;;;;;;7.90;7.15;;;16.40;99.90;;;;;;4961716;28;20447;-82
2023/08/30 01:14:00;;;;;;;8.27;7.38;;;16.40;99.90;;;;;;4973757;28;20390;-82
2023/08/30 01:16:26;;;;;;;7.93;7.20;;;16.40;99.90;;;;;;4969255;28;20059;-82
2023/08/30 01:18:56;;;;;;;20.42;8.02;;;16.40;99.90;;;;;;4959266;28;20507;-82
2023/08/30 01:21:39;;;;;;;7.70;7.00;;;16.30;99.90;;;;;;4957296;28;20039;-81
2023/08/30 01:24:09;;;;;;;9.25;7.15;;;16.30;99.90;;;;;;4972977;28;20502;-81
2023/08/30 01:27:03;;;;;;;8.25;7.45;;;16.30;99.90;;;;;;4964183;28;20034;-82
2023/08/30 01:29:31;;;;;;;8.70;7.75;;;16.30;99.90;;;;;;4969554;28;20031;-81
2023/08/30 01:31:57;;;;;;;11.57;8.90;;;16.30;99.90;;;;;;4955926;28;20035;-81
2023/08/30 01:34:23;;;;;;;8.45;7.70;;;16.20;99.90;;;;;;4962595;28;20121;-82
2023/08/30 01:36:49;;;;;;;9.63;8.73;;;16.20;99.90;;;;;;4972666;28;20037;-82
2023/08/30 01:39:16;;;;;;;9.45;8.63;;;16.20;99.90;;;;;;4972032;28;20117;-83
2023/08/30 01:41:42;;;;;;;8.85;7.97;;;16.20;99.90;;;;;;4956178;28;21058;-82
2023/08/30 01:44:08;;;;;;;10.98;8.27;;;16.20;99.90;;;;;;4968922;28;20038;-83
2023/08/30 01:46:35;;;;;;;11.35;8.57;;;16.20;99.90;;;;;;4972059;28;20026;-82
2023/08/30 01:49:04;;;;;;;9.07;7.88;;;16.20;99.90;;;;;;4958448;28;20031;-82
2023/08/30 01:51:30;;;;;;;9.60;8.70;;;16.20;99.90;;;;;;4955949;28;20093;-82
2023/08/30 01:53:57;;;;;;;11.00;8.70;;;16.20;99.90;;;;;;4959216;28;20035;-83
2023/08/30 01:56:23;;;;;;;10.73;9.07;;;16.10;99.90;;;;;;4968704;28;20050;-82
2023/08/30 01:58:49;;;;;;;10.23;8.93;;;16.10;99.90;;;;;;4970414;28;20498;-82
2023/08/30 02:01:15;;;;;;;10.50;8.82;;;16.10;99.90;;;;;;4969609;28;20027;-82
2023/08/30 02:03:44;;;;;;;9.85;8.80;;;16.10;99.90;;;;;;4963870;28;20031;-82
2023/08/30 02:06:17;;;;;;;9.93;9.02;;;16.20;99.90;;;;;;4972493;28;20027;-82
2023/08/30 02:08:50;;;;;;;10.55;9.45;;;16.10;99.90;;;;;;4971476;28;20101;-82
2023/08/30 02:11:21;;;;;;;9.60;8.70;;;16.10;99.90;;;;;;4959590;28;20109;-82
2023/08/30 02:13:49;;;;;;;10.90;9.07;;;16.00;99.90;;;;;;4970734;28;20482;-82
2023/08/30 02:16:17;;;;;;;11.38;9.32;;;16.20;99.90;;;;;;4972618;28;20042;-82
2023/08/30 02:18:44;;;;;;;11.68;9.75;;;16.00;99.90;;;;;;4963585;28;20394;-82
2023/08/30 02:21:09;;;;;;;11.63;9.77;;;16.00;99.90;;;;;;4962133;28;20113;-81
2023/08/30 02:23:35;;;;;;;10.63;9.50;;;15.90;99.90;;;;;;4962218;28;20487;-82
2023/08/30 02:26:03;;;;;;;9.82;8.82;;;15.90;99.90;;;;;;4959874;28;20031;-82
2023/08/30 02:28:29;;;;;;;13.00;10.13;;;15.90;99.90;;;;;;4961240;28;20066;-82
2023/08/30 02:30:54;;;;;;;12.10;9.90;;;15.90;99.90;;;;;;4965742;28;20059;-82
2023/08/30 02:33:20;;;;;;;10.75;9.45;;;15.90;99.90;;;;;;4959009;28;20031;-82
2023/08/30 02:35:46;;;;;;;14.20;10.00;;;15.90;99.90;;;;;;4972117;28;20123;-82
2023/08/30 02:38:11;;;;;;;9.93;9.02;;;15.80;99.90;;;;;;4963801;28;20090;-82
2023/08/30 02:40:37;;;;;;;10.70;8.93;;;16.10;99.90;;;;;;4971480;28;20479;-82
2023/08/30 02:43:03;;;;;;;11.27;10.15;;;15.80;99.90;;;;;;4969744;28;20636;-82
2023/08/30 02:45:28;;;;;;;15.27;9.90;;;15.80;99.90;;;;;;4957564;29;20032;-82
2023/08/30 02:47:57;;;;;;;9.27;8.38;;;15.80;99.90;;;;;;4964027;28;20038;-82
2023/08/30 02:50:23;;;;;;;13.38;9.38;;;15.70;99.90;;;;;;4976182;28;20034;-82
2023/08/30 02:52:49;;;;;;;12.93;9.95;;;15.80;99.90;;;;;;4974623;28;20034;-82
2023/08/30 02:55:14;;;;;;;13.00;9.75;;;15.70;99.90;;;;;;4971399;28;20542;-81
2023/08/30 02:57:40;;;;;;;13.32;10.25;;;15.70;99.90;;;;;;4968408;28;20031;-81
2023/08/30 03:00:06;;;;;;;11.07;9.90;;;15.70;99.90;;;;;;4975369;28;20055;-81
2023/08/30 03:02:35;;;;;;;11.85;10.18;;;15.70;99.90;;;;;;4975444;28;20057;-81
2023/08/30 03:05:01;;;;;;;11.88;9.95;;;15.60;99.90;;;;;;4971323;28;20023;-82
2023/08/30 03:07:28;;;;;;;12.90;9.45;;;15.70;99.90;;;;;;4975978;28;20053;-81
2023/08/30 03:09:54;;;;;;;10.38;9.32;;;15.60;99.90;;;;;;4964337;28;20038;-81
2023/08/30 03:12:20;;;;;;;12.77;10.25;;;15.60;99.90;;;;;;4969982;28;20022;-82
2023/08/30 03:14:46;;;;;;;12.68;10.80;;;15.60;99.90;;;;;;4974953;28;20517;-81
2023/08/30 03:17:12;;;;;;;13.63;11.40;;;15.60;99.90;;;;;;4975090;28;20035;-81
2023/08/30 03:19:37;;;;;;;11.05;9.77;;;15.50;99.90;;;;;;4975907;28;20078;-82
2023/08/30 03:22:03;;;;;;;15.05;10.93;;;15.50;99.90;;;;;;4973637;28;20046;-82
2023/08/30 03:24:29;;;;;;;13.68;10.32;;;15.50;99.90;;;;;;4975717;28;20054;-81
2023/08/30 03:26:54;;;;;;;14.70;10.25;;;15.50;99.90;;;;;;4965915;28;20106;-82
2023/08/30 03:29:20;;;;;;;12.18;9.90;;;15.40;99.90;;;;;;4966435;28;20034;-82
2023/08/30 03:31:45;;;;;;;14.98;9.90;;;15.40;99.90;;;;;;4956455;29;20031;-82
2023/08/30 03:34:11;;;;;;;11.75;10.00;;;15.50;99.90;;;;;;4956618;29;20491;-83
2023/08/30 03:36:37;;;;;;;15.75;10.38;;;15.50;99.90;;;;;;4970512;28;20035;-82
2023/08/30 03:39:03;;;;;;;11.60;9.98;;;15.40;99.90;;;;;;4974063;28;20098;-81
2023/08/30 03:41:29;;;;;;;12.00;10.80;;;15.30;99.90;;;;;;4972226;28;20170;-82
2023/08/30 03:43:54;;;;;;;13.43;10.23;;;15.40;99.90;;;;;;4967280;28;20110;-82
2023/08/30 03:46:20;;;;;;;11.50;9.65;;;15.40;99.90;;;;;;4974439;28;20482;-82
2023/08/30 03:48:45;;;;;;;11.88;10.38;;;15.30;99.90;;;;;;4975044;28;20050;-82
2023/08/30 03:51:11;;;;;;;17.77;10.52;;;15.30;99.90;;;;;;4973002;28;20027;-82
2023/08/30 03:53:37;;;;;;;12.18;10.55;;;15.30;99.90;;;;;;4974641;28;20107;-82
2023/08/30 03:56:03;;;;;;;13.45;9.85;;;15.30;99.90;;;;;;4965655;28;20090;-82
2023/08/30 03:58:29;;;;;;;13.52;11.05;;;15.30;99.90;;;;;;4968227;28;20027;-82
2023/08/30 04:00:56;;;;;;;11.13;10.02;;;15.20;99.90;;;;;;4956220;29;20475;-82
2023/08/30 04:03:21;;;;;;;13.60;9.80;;;15.30;99.90;;;;;;4964372;28;20545;-82
2023/08/30 04:05:47;;;;;;;13.15;10.45;;;15.30;99.90;;;;;;4962416;28;20035;-82
2023/08/30 04:08:13;;;;;;;12.60;10.52;;;15.30;99.90;;;;;;4970412;28;20035;-82
2023/08/30 04:10:39;;;;;;;13.05;10.32;;;15.30;99.90;;;;;;4955268;29;20055;-82
2023/08/30 04:13:05;;;;;;;10.43;9.27;;;15.30;99.90;;;;;;4959950;28;20121;-82
2023/08/30 04:15:35;;;;;;;11.38;10.00;;;15.30;99.90;;;;;;4964292;28;20031;-81
2023/08/30 04:18:02;;;;;;;11.15;9.88;;;15.10;99.90;;;;;;4963882;28;20490;-82
2023/08/30 04:20:27;;;;;;;17.80;9.98;;;15.20;99.90;;;;;;4974519;28;20074;-82
2023/08/30 04:22:54;;;;;;;10.60;9.50;;;15.20;99.90;;;;;;4974417;28;20055;-82
2023/08/30 04:25:20;;;;;;;10.27;9.07;;;15.30;99.90;;;;;;4967955;28;20038;-82
2023/08/30 04:27:46;;;;;;;13.02;9.80;;;15.30;99.90;;;;;;4964827;28;20031;-81
2023/08/30 04:30:12;;;;;;;10.27;9.27;;;15.30;99.90;;;;;;4955596;29;20471;-84
2023/08/30 04:32:38;;;;;;;10.93;9.25;;;15.30;99.90;;;;;;4956763;28;20051;-81
2023/08/30 04:35:04;;;;;;;13.73;9.60;;;15.30;99.90;;;;;;4972633;28;20061;-81
2023/08/30 04:37:32;;;;;;;10.23;9.13;;;15.30;99.90;;;;;;4972161;28;20051;-81
2023/08/30 04:39:58;;;;;;;9.48;8.48;;;15.30;99.90;;;;;;4967177;28;20035;-82
2023/08/30 04:42:24;;;;;;;13.05;9.75;;;15.30;99.90;;;;;;4970595;28;20546;-82
2023/08/30 04:44:51;;;;;;;12.93;9.13;;;15.20;99.90;;;;;;4974137;28;20027;-82
2023/08/30 04:47:17;;;;;;;12.73;9.52;;;15.00;99.90;;;;;;4959969;28;20058;-82
2023/08/30 04:49:42;;;;;;;12.15;9.82;;;15.10;99.90;;;;;;4954723;29;20488;-82
2023/08/30 04:52:08;;;;;;;10.43;8.48;;;15.20;99.90;;;;;;4967363;28;20128;-82
2023/08/30 04:54:33;;;;;;;12.10;9.38;;;15.10;99.90;;;;;;4972894;28;20579;-82
2023/08/30 04:56:59;;;;;;;14.48;10.18;;;15.20;99.90;;;;;;4966565;28;20051;-82
2023/08/30 04:59:24;;;;;;;14.57;9.85;;;15.40;99.90;;;;;;4973944;28;20037;-82
2023/08/30 05:01:51;;;;;;;13.98;10.30;;;15.10;99.90;;;;;;4960064;28;20043;-82
2023/08/30 05:04:17;;;;;;;10.30;9.10;;;15.10;99.90;;;;;;4971803;28;20158;-82
2023/08/30 05:06:43;;;;;;;10.00;9.00;;;15.10;99.90;;;;;;4972287;28;20547;-82
2023/08/30 05:09:08;;;;;;;11.50;9.10;;;15.00;99.90;;;;;;4966955;28;20376;-81
2023/08/30 05:11:34;;;;;;;10.57;9.52;;;15.10;99.90;;;;;;4974162;28;20073;-81
2023/08/30 05:13:59;;;;;;;10.00;9.00;;;15.10;99.90;;;;;;4972513;28;20114;-82
2023/08/30 05:16:25;;;;;;;9.32;8.52;;;15.00;99.90;;;;;;4972925;28;20027;-81
2023/08/30 05:18:51;;;;;;;12.98;10.07;;;15.00;99.90;;;;;;4955510;28;20498;-82
2023/08/30 05:21:16;;;;;;;13.98;9.23;;;15.00;99.90;;;;;;4955547;28;20427;-82
2023/08/30 05:23:42;;;;;;;13.48;9.32;;;15.40;99.90;;;;;;4966025;28;20527;-81
2023/08/30 05:26:09;;;;;;;9.98;9.02;;;15.00;99.90;;;;;;4954558;29;20019;-82
2023/08/30 05:28:34;;;;;;;14.00;9.00;;;15.10;99.90;;;;;;4964168;28;20045;-81
2023/08/30 05:31:00;;;;;;;12.77;9.50;;;15.10;99.90;;;;;;4959241;28;20031;-81
2023/08/30 05:33:25;;;;;;;11.00;8.95;;;15.10;99.90;;;;;;4971194;28;20483;-81
2023/08/30 05:35:51;;;;;;;10.48;8.85;;;15.10;99.90;;;;;;4972864;28;20025;-82
2023/08/30 05:38:17;;;;;;;12.30;9.48;;;15.20;99.90;;;;;;4971859;28;20562;-81
2023/08/30 05:40:44;;;;;;;11.05;9.60;;;16.00;99.90;;;;;;4963872;28;20031;-82
2023/08/30 05:43:10;;;;;;;9.68;8.88;;;15.10;99.90;;;;;;4969189;28;20035;-82
2023/08/30 05:45:37;;;;;;;10.98;9.85;;;15.20;99.90;;;;;;4957781;28;20032;-81
2023/08/30 05:48:03;;;;;;;11.73;9.82;;;15.20;99.90;;;;;;4969125;28;20039;-81
2023/08/30 05:50:28;;;;;;;10.00;8.93;;;15.20;99.90;;;;;;4959831;28;20475;-80
2023/08/30 05:52:54;;;;;;;11.80;9.73;;;15.20;99.90;;;;;;4972789;28;20038;-81
2023/08/30 05:55:20;;;;;;;10.50;9.43;;;15.20;99.90;;;;;;4972131;28;20107;-81
2023/08/30 05:57:45;;;;;;;11.05;9.13;;;15.20;99.90;;;;;;4972030;28;20482;-81
2023/08/30 06:00:12;;;;;;;14.30;9.98;;;15.20;99.90;;;;;;4970687;28;20027;-81
2023/08/30 06:02:38;;;;;;;11.73;8.98;;;15.20;99.90;;;;;;4954531;28;20043;-81
2023/08/30 06:05:04;;;;;;;15.60;9.95;;;15.20;99.90;;;;;;4962651;28;20061;-81
2023/08/30 06:07:30;;;;;;;13.77;9.43;;;15.30;99.90;;;;;;4969919;28;20030;-80
2023/08/30 06:09:56;;;;;;;12.82;9.25;;;15.30;99.90;;;;;;4969349;28;20502;-81
2023/08/30 06:12:21;;;;;;;13.05;10.05;;;15.30;99.90;;;;;;4970759;28;20526;-81
2023/08/30 06:14:52;;;;;;;12.45;9.65;;;15.30;99.90;;;;;;4970922;28;20019;-81
2023/08/30 06:17:18;;;;;;;14.88;9.52;;;15.30;99.90;;;;;;4968509;28;20077;-81
2023/08/30 06:19:44;;;;;;;12.13;8.85;;;15.30;99.90;;;;;;4969655;28;20031;-81
2023/08/30 06:22:10;;;;;;;12.40;9.98;;;15.30;99.90;;;;;;4972139;28;20479;-81
2023/08/30 06:24:36;;;;;;;12.63;9.27;;;15.30;99.90;;;;;;4967811;28;20102;-81
2023/08/30 06:27:01;;;;;;;10.15;9.13;;;15.40;99.90;;;;;;4972377;28;20106;-80
2023/08/30 06:29:27;;;;;;;21.88;10.15;;;15.30;99.90;;;;;;4970358;28;20046;-81
2023/08/30 06:31:54;;;;;;;13.07;10.35;;;15.20;99.90;;;;;;4972196;28;20034;-81
2023/08/30 06:34:19;;;;;;;11.20;9.95;;;15.20;99.90;;;;;;4965239;28;20050;-82
2023/08/30 06:36:45;;;;;;;20.20;10.20;;;15.20;99.90;;;;;;4956868;28;20472;-81
2023/08/30 06:39:11;;;;;;;13.27;9.80;;;15.20;99.90;;;;;;4959840;28;20031;-81
2023/08/30 06:41:36;;;;;;;16.58;10.27;;;15.10;99.90;;;;;;4957000;28;20093;-84
2023/08/30 06:44:03;;;;;;;14.90;9.98;;;15.10;99.90;;;;;;4955809;28;20063;-83
2023/08/30 06:46:28;;;;;;;12.95;9.98;;;15.10;99.90;;;;;;4960837;28;20031;-83
2023/08/30 06:48:54;;;;;;;12.80;9.43;;;15.20;99.90;;;;;;4953214;29;20035;-83
2023/08/30 06:51:19;;;;;;;12.75;9.85;;;15.20;99.90;;;;;;4956679;28;20543;-83
2023/08/30 06:53:46;;;;;;;10.55;9.55;;;15.20;99.90;;;;;;4960617;28;20368;-82
2023/08/30 06:56:12;;;;;;;10.88;9.60;;;15.20;99.90;;;;;;4953152;28;20487;-82
2023/08/30 06:58:38;;;;;;;13.68;9.68;;;15.20;99.90;;;;;;4964801;28;20026;-83
2023/08/30 07:01:04;;;;;;;12.25;9.77;;;15.10;99.90;;;;;;4970804;28;20046;-84
2023/08/30 07:03:29;;;;;;;16.23;9.98;;;15.10;99.90;;;;;;4969802;28;20125;-83
2023/08/30 07:05:55;;;;;;;17.88;11.68;;;15.10;99.90;;;;;;4971682;28;20186;-83
2023/08/30 07:08:21;;;;;;;17.40;10.70;;;15.10;99.90;;;;;;4971180;28;20475;-83
2023/08/30 07:10:47;;;;;;;10.70;9.60;;;15.10;99.90;;;;;;4969946;28;20376;-84
2023/08/30 07:13:12;;;;;;;10.88;9.05;;;15.10;99.90;;;;;;4971086;28;20054;-83
2023/08/30 07:15:41;;;;;;;16.80;9.95;;;15.00;99.90;;;;;;4968291;28;20365;-83
2023/08/30 07:18:08;;;;;;;14.30;9.85;;;15.00;99.90;;;;;;4971379;28;20352;-83
2023/08/30 07:20:35;;;;;;;11.43;9.27;;;15.00;99.90;;;;;;4967993;28;20106;-83
2023/08/30 07:23:01;;;;;;;12.52;9.55;;;15.00;99.90;;;;;;4970803;28;20402;-83
2023/08/30 07:25:26;;;;;;;8.57;7.55;;;14.90;99.90;;;;;;4964709;28;20097;-83
2023/08/30 07:27:53;;;;;;;10.63;8.00;;;15.00;99.90;;;;;;4951898;29;20138;-83
2023/08/30 07:30:19;;;;;;;9.55;8.55;;;15.00;99.90;;;;;;4962696;28;20113;-83
2023/08/30 07:32:45;;;;;;;9.43;8.38;;;14.90;99.90;;;;;;4974413;28;20085;-84
2023/08/30 07:35:10;;;;;;;10.18;8.30;;;15.00;99.90;;;;;;4972925;28;20035;-81
2023/08/30 07:37:36;;;;;;;9.98;8.02;;;15.00;99.90;;;;;;4961409;28;20110;-81
2023/08/30 07:40:05;;;;;;;10.63;7.68;;;14.90;99.90;;;;;;4957978;28;20030;-82
2023/08/30 07:42:31;;;;;;;10.05;7.43;;;15.00;99.90;;;;;;4974138;28;20035;-83
2023/08/30 07:44:56;;;;;;;8.60;7.80;;;15.10;99.90;;;;;;4973059;28;20027;-82
2023/08/30 07:47:22;;;;;;;7.60;6.80;;;15.00;99.90;;;;;;4969271;28;20557;-84
2023/08/30 07:49:47;;;;;;;8.88;7.07;;;15.00;99.90;;;;;;4963752;28;20023;-84
2023/08/30 07:52:14;;;;;;;6.07;5.50;;;15.10;99.90;;;;;;4974127;28;20387;-83
2023/08/30 07:54:40;;;;;;;7.15;6.13;;;15.10;99.90;;;;;;4971086;28;20491;-86
2023/08/30 07:57:07;;;;;;;6.53;5.47;;;15.10;99.90;;;;;;4969055;28;20035;-83
2023/08/30 07:59:34;;;;;;;5.93;5.30;;;15.10;99.90;;;;;;4968689;28;20459;-85
2023/08/30 08:02:00;;;;;;;8.65;6.38;;;15.10;99.90;;;;;;4970740;28;20102;-84
2023/08/30 08:04:25;;;;;;;7.00;6.30;;;15.10;99.90;;;;;;4967367;28;20026;-83
2023/08/30 08:06:52;;;;;;;9.93;6.78;;;15.10;99.90;;;;;;4969964;28;20541;-84
2023/08/30 08:09:17;;;;;;;6.47;5.57;;;15.10;99.90;;;;;;4962185;28;20030;-83
2023/08/30 08:11:43;;;;;;;6.72;6.13;;;15.10;99.90;;;;;;4969577;28;20040;-85
2023/08/30 08:14:12;;;;;;;6.60;6.00;;;15.20;99.90;;;;;;4959233;28;20023;-84
2023/08/30 08:16:38;;;;;;;6.60;5.88;;;15.20;99.90;;;;;;4961336;28;20109;-83
2023/08/30 08:19:03;;;;;;;7.78;6.97;;;15.20;99.90;;;;;;4961166;28;20086;-85
2023/08/30 08:21:29;;;;;;;6.28;5.68;;;15.30;99.90;;;;;;4967183;28;20505;-84
2023/08/30 08:23:55;;;;;;;5.90;5.40;;;15.30;99.90;;;;;;4961341;28;20055;-85
2023/08/30 08:26:20;;;;;;;6.05;5.50;;;15.30;99.90;;;;;;4965484;28;20038;-82
2023/08/30 08:28:46;;;;;;;6.55;5.95;;;15.30;99.90;;;;;;4971777;28;20069;-80
2023/08/30 08:31:11;;;;;;;8.77;6.55;;;15.30;99.90;;;;;;4966986;28;20034;-81
2023/08/30 08:33:37;;;;;;;6.90;6.30;;;15.30;99.90;;;;;;4971599;28;20035;-80
2023/08/30 08:36:03;;;;;;;8.07;6.88;;;15.40;99.90;;;;;;4965643;28;20031;-80
2023/08/30 08:38:28;;;;;;;6.80;6.22;;;15.30;99.90;;;;;;4967230;28;20149;-80
2023/08/30 08:41:04;;;;;;;7.63;6.93;;;15.40;99.90;;;;;;4964206;28;20480;-80
2023/08/30 08:43:32;;;;;;;8.68;7.50;;;15.40;99.90;;;;;;4967405;28;20030;-80
2023/08/30 08:46:00;;;;;;;7.72;7.07;;;16.30;99.90;;;;;;4957538;28;20031;-81
2023/08/30 08:48:29;;;;;;;8.23;7.50;;;16.20;99.90;;;;;;4963354;28;21115;-80
2023/08/30 08:50:56;;;;;;;8.40;7.80;;;15.60;99.90;;;;;;4971609;28;20025;-82
2023/08/30 08:53:23;;;;;;;7.80;7.25;;;15.60;99.90;;;;;;4961305;28;20031;-81
2023/08/30 08:55:49;;;;;;;8.82;8.13;;;15.60;99.90;;;;;;4968957;28;20042;-80
2023/08/30 08:58:15;;;;;;;9.23;8.30;;;15.60;99.90;;;;;;4971952;28;20037;-83
2023/08/30 09:00:42;;;;;;;9.57;8.88;;;15.70;99.90;;;;;;4969116;28;20030;-82
2023/08/30 09:03:09;;;;;;;7.85;7.25;;;15.80;99.90;;;;;;4964502;28;20103;-81
2023/08/30 09:05:38;;;;;;;10.23;9.32;;;16.00;99.90;;;;;;4965801;28;20037;-81
2023/08/30 09:08:05;;;;;;;10.25;8.35;;;15.80;99.90;;;;;;4967359;28;20042;-81
2023/08/30 09:10:35;;;;;;;9.55;8.75;;;15.80;99.90;;;;;;4966226;28;20022;-82
2023/08/30 09:13:01;;;;;;;10.00;9.05;;;15.90;99.90;;;;;;4968893;28;20073;-82
2023/08/30 09:15:34;;;;;;;10.15;9.27;;;15.80;99.90;;;;;;4965888;28;20050;-82
2023/08/30 09:17:59;;;;;;;9.90;9.10;;;15.90;99.90;;;;;;4964987;28;20551;-82
2023/08/30 09:20:25;;;;;;;8.43;7.63;;;16.00;99.90;;;;;;4963266;28;20106;-81
2023/08/30 09:22:51;;;;;;;6.90;6.40;;;16.00;99.90;;;;;;4965947;28;20117;-82
2023/08/30 09:25:26;;;;;;;8.15;7.55;;;16.00;99.90;;;;;;4963850;28;20062;-81
2023/08/30 09:27:59;;;;;;;9.85;9.02;;;16.10;99.90;;;;;;4965554;28;20027;-82
2023/08/30 09:30:25;;;;;;;6.97;6.47;;;16.10;99.90;;;;;;4963478;28;20035;-82
2023/08/30 09:32:50;;;;;;;8.52;6.20;;;16.10;99.90;;;;;;4965001;28;20026;-81
2023/08/30 09:35:16;;;;;;;6.97;6.38;;;16.10;99.90;;;;;;4955412;28;20077;-82
2023/08/30 09:37:45;;;;;;;5.80;5.30;;;16.20;99.90;;;;;;4967099;28;20554;-82
2023/08/30 09:40:11;;;;;;;5.05;4.50;;;16.30;99.90;;;;;;4965145;28;20038;-81
2023/08/30 09:42:42;;;;;;;7.68;3.65;;;16.30;99.90;;;;;;4968228;28;20039;-82
2023/08/30 09:45:23;;;;;;;5.20;3.38;;;16.30;99.90;;;;;;4965121;28;20027;-82
2023/08/30 09:47:49;;;;;;;6.90;3.17;;;16.40;99.90;;;;;;4967349;28;20058;-82
2023/08/30 09:50:18;;;;;;;3.75;3.00;;;16.50;99.90;;;;;;4963365;28;20031;-81
2023/08/30 09:52:46;;;;;;;6.80;3.22;;;16.50;99.90;;;;;;4965421;28;20018;-82
2023/08/30 09:55:12;;;;;;;5.65;3.80;;;16.50;99.90;;;;;;4963487;28;20023;-81
2023/08/30 09:57:39;;;;;;;6.10;3.08;;;16.60;99.90;;;;;;4968363;28;20034;-82
2023/08/30 10:00:06;;;;;;;8.50;3.60;;;16.50;99.90;;;;;;4966681;28;20022;-82
2023/08/30 10:02:33;;;;;;;8.18;3.38;;;16.60;99.90;;;;;;4965732;28;20034;-82
2023/08/30 10:04:59;;;;;;;8.48;3.45;;;16.60;99.90;;;;;;4967861;28;20475;-81
2023/08/30 10:07:25;;;;;;;5.43;3.05;;;17.60;99.90;;;;;;4966260;28;21058;-82
2023/08/30 10:09:52;;;;;;;7.22;3.22;;;16.70;99.90;;;;;;4963077;28;20392;-81
2023/08/30 10:12:22;;;;;;;5.22;3.03;;;16.70;99.90;;;;;;4961681;28;20035;-81
2023/08/30 10:14:47;;;;;;;3.50;2.92;;;16.70;99.90;;;;;;4963507;28;20039;-81
2023/08/30 10:17:17;;;;;;;7.53;3.15;;;16.80;99.90;;;;;;4968258;28;20097;-81
2023/08/30 10:19:45;;;;;;;4.30;3.00;;;16.80;99.90;;;;;;4968872;28;20041;-81
2023/08/30 10:22:17;;;;;;;5.15;2.75;;;16.80;99.90;;;;;;4960873;28;20049;-82
2023/08/30 10:24:48;;;;;;;4.25;3.08;;;16.80;99.90;;;;;;4961450;28;20070;-82
2023/08/30 10:27:14;;;;;;;6.50;3.17;;;16.80;99.90;;;;;;4966312;28;20074;-81
2023/08/30 10:29:42;;;;;;;6.65;3.13;;;16.90;99.90;;;;;;4962589;28;20383;-81
2023/08/30 10:32:08;;;;;;;6.20;3.28;;;16.80;99.90;;;;;;4965205;28;20030;-82
2023/08/30 10:34:35;;;;;;;7.30;3.25;;;16.90;99.90;;;;;;4963765;28;20106;-80
2023/08/30 10:37:02;;;;;;;5.95;3.05;;;16.90;99.90;;;;;;4971192;28;20034;-81
2023/08/30 10:39:39;;;;;;;7.25;3.63;;;16.90;99.90;;;;;;4968864;28;20027;-82
2023/08/30 10:42:13;;;;;;;9.50;3.85;;;16.90;99.90;;;;;;4951952;29;20398;-82
2023/08/30 10:44:48;;;;;;;9.30;3.42;;;17.20;99.90;;;;;;4959973;28;20022;-82
2023/08/30 10:47:29;;;;;;;4.70;2.75;;;16.90;99.90;;;;;;4972454;28;20069;-82
2023/08/30 10:49:59;;;;;;;5.35;2.97;;;16.90;99.90;;;;;;4972599;28;20023;-81
2023/08/30 10:52:25;;;;;;;;;;;16.80;99.90;;;;;;4970718;28;20046;-81
2023/08/30 10:54:51;;;;;;;8.45;4.05;;;16.80;99.90;;;;;;4967403;28;19915;-81
2023/08/30 10:57:25;;;;;;;10.27;3.60;;;16.70;99.90;;;;;;4962020;28;20034;-80
2023/08/30 11:00:13;;;;;;;11.57;4.60;;;16.60;99.90;;;;;;4970335;28;20101;-81
2023/08/30 11:02:43;;;;;;;7.35;4.13;;;16.60;99.90;;;;;;4970462;28;20038;-82
2023/08/30 11:05:09;;;;;;;11.38;4.22;;;16.50;99.90;;;;;;4963317;28;20058;-83
2023/08/30 11:07:35;;;;;;;9.82;4.13;;;16.40;99.90;;;;;;4974898;28;20552;-82
2023/08/30 11:10:00;;;;;;;11.65;5.30;;;16.50;99.90;;;;;;4970832;28;20387;-81
2023/08/30 11:12:26;;;;;;;7.70;3.83;;;16.50;99.90;;;;;;4976236;28;20019;-83
2023/08/30 11:14:53;;;;;;;8.85;3.75;;;17.30;99.90;;;;;;4975132;28;20138;-84
2023/08/30 11:17:19;;;;;;;12.50;4.28;;;16.50;99.90;;;;;;4970084;28;20185;-81
2023/08/30 11:19:45;;;;;;;8.48;3.67;;;16.80;99.90;;;;;;4963823;28;20118;-81
2023/08/30 11:22:13;;;;;;;10.68;3.63;;;16.70;99.90;;;;;;4958366;28;20507;-82
2023/08/30 11:24:39;;;;;;;19.88;3.63;;;16.60;99.90;;;;;;4967207;28;20047;-82
2023/08/30 11:27:05;;;;;;;7.47;3.30;;;17.00;99.90;;;;;;4970212;28;20063;-81
2023/08/30 11:29:30;;;;;;;10.00;3.95;;;16.80;99.90;;;;;;4967363;28;20030;-81
2023/08/30 11:31:56;;;;;;;9.43;3.55;;;17.00;99.90;;;;;;4969077;28;20035;-81
2023/08/30 11:34:22;;;;;;;7.65;3.22;;;17.10;99.90;;;;;;4964523;28;20027;-81
2023/08/30 11:36:49;;;;;;;8.32;3.17;;;17.10;99.90;;;;;;4956330;29;20033;-82
2023/08/30 11:39:16;;;;;;;14.85;3.45;;;17.20;99.90;;;;;;4959334;28;20027;-81
2023/08/30 11:41:42;;;;;;;6.20;2.20;;;17.70;99.90;;;;;;4969267;28;20402;-81
2023/08/30 11:44:08;;;;;;;13.95;2.70;;;17.30;99.90;;;;;;4959186;28;20024;-81
2023/08/30 11:46:33;;;;;;;7.93;2.20;;;17.40;99.90;;;;;;4969822;28;20035;-81
2023/08/30 11:48:59;;;;;;;5.13;2.15;;;17.80;99.90;;;;;;4969459;28;20019;-81
2023/08/30 11:51:25;;;;;;;8.57;2.20;;;17.90;99.90;;;;;;4969449;28;20026;-82
2023/08/30 11:53:52;;;;;;;9.23;2.88;;;17.60;99.90;;;;;;4974736;28;20045;-81
2023/08/30 11:56:19;;;;;;;5.90;2.35;;;18.20;99.90;;;;;;4970592;28;20045;-81
2023/08/30 11:58:44;;;;;;;5.97;2.00;;;17.80;99.90;;;;;;4974385;28;20519;-81
2023/08/30 12:01:11;;;;;;;7.72;2.00;;;17.80;99.90;;;;;;4973880;28;20129;-81
2023/08/30 12:03:36;;;;;;;9.75;2.45;;;17.80;99.90;;;;;;4973589;28;20037;-81
2023/08/30 12:06:08;;;;;;;8.07;2.58;;;17.80;99.90;;;;;;4972321;28;20023;-81
2023/08/30 12:08:34;;;;;;;7.88;1.98;;;17.80;99.90;;;;;;4965161;28;20490;-82
2023/08/30 12:11:01;;;;;;;9.05;1.98;;;17.80;99.90;;;;;;4963843;28;20483;-82
2023/08/30 12:13:32;;;;;;;8.05;2.40;;;17.80;99.90;;;;;;4970683;28;20038;-81
2023/08/30 12:15:59;;;;;;;8.38;2.63;;;17.80;99.90;;;;;;4957344;28;20055;-84
2023/08/30 12:18:29;;;;;;;7.13;2.30;;;17.80;99.90;;;;;;4971682;28;20030;-82
2023/08/30 12:21:08;;;;;;;8.30;1.95;;;17.70;99.90;;;;;;4965453;28;20567;-82
2023/08/30 12:23:34;;;;;;;6.15;2.67;;;17.70;99.90;;;;;;4956401;28;20050;-81
2023/08/30 12:26:08;;;;;;;5.65;2.08;;;17.70;99.90;;;;;;4948724;29;20039;-81
2023/08/30 12:28:35;;;;;;;7.07;2.20;;;17.70;99.90;;;;;;4946834;29;20039;-81
2023/08/30 12:31:03;;;;;;;9.88;2.38;;;17.70;99.90;;;;;;4946039;29;20031;-81
2023/08/30 12:33:29;;;;;;;10.13;2.58;;;17.70;99.90;;;;;;4950605;29;20031;-81
2023/08/30 12:35:56;;;;;;;9.70;2.28;;;17.80;99.90;;;;;;4945682;29;20035;-81
2023/08/30 12:38:22;;;;;;;5.20;1.92;;;17.90;99.90;;;;;;4945961;29;20031;-82